sensor_id;sensor_type;location;lat;lon;timestamp;temperature;humidity
40630;DHT22;26329;40.388;-3.710;2023-11-21T00:06:57;12.80;70.20
40630;DHT22;26329;40.388;-3.710;2023-11-21T00:16:58;12.90;69.60
40630;DHT22;26329;40.388;-3.710;2023-11-21T00:26:59;12.60;70.40
40630;DHT22;26329;40.388;-3.710;2023-11-21T00:37:00;12.70;70.30
40630;DHT22;26329;40.388;-3.710;2023-11-21T00:47:00;12.40;71.20
40630;DHT22;26329;40.388;-3.710;2023-11-21T00:57:01;12.40;71.90
40630;DHT22;26329;40.388;-3.710;2023-11-21T01:07:02;12.30;72.10
40630;DHT22;26329;40.388;-3.710;2023-11-21T01:17:02;12.10;72.80
40630;DHT22;26329;40.388;-3.710;2023-11-21T01:27:05;12.10;73.00
40630;DHT22;26329;40.388;-3.710;2023-11-21T01:37:06;12.10;73.60
40630;DHT22;26329;40.388;-3.710;2023-11-21T01:47:07;11.90;74.70
40630;DHT22;26329;40.388;-3.710;2023-11-21T01:57:08;11.80;74.30
40630;DHT22;26329;40.388;-3.710;2023-11-21T02:07:09;11.70;74.80
40630;DHT22;26329;40.388;-3.710;2023-11-21T02:17:10;11.90;73.90
40630;DHT22;26329;40.388;-3.710;2023-11-21T02:27:13;11.70;74.60
40630;DHT22;26329;40.388;-3.710;2023-11-21T02:37:17;11.60;75.20
40630;DHT22;26329;40.388;-3.710;2023-11-21T02:47:18;11.50;75.90
40630;DHT22;26329;40.388;-3.710;2023-11-21T02:57:18;11.40;75.30
40630;DHT22;26329;40.388;-3.710;2023-11-21T03:07:19;11.30;76.00
40630;DHT22;26329;40.388;-3.710;2023-11-21T03:17:19;11.40;75.10
40630;DHT22;26329;40.388;-3.710;2023-11-21T03:27:20;11.30;75.70
40630;DHT22;26329;40.388;-3.710;2023-11-21T03:37:21;11.30;75.10
40630;DHT22;26329;40.388;-3.710;2023-11-21T03:47:21;11.20;75.10
40630;DHT22;26329;40.388;-3.710;2023-11-21T03:57:22;10.70;73.70
40630;DHT22;26329;40.388;-3.710;2023-11-21T04:07:22;10.10;74.10
40630;DHT22;26329;40.388;-3.710;2023-11-21T04:17:23;9.90;74.80
40630;DHT22;26329;40.388;-3.710;2023-11-21T04:27:24;9.80;75.60
40630;DHT22;26329;40.388;-3.710;2023-11-21T04:37:25;9.80;76.00
40630;DHT22;26329;40.388;-3.710;2023-11-21T04:47:25;9.80;76.10
40630;DHT22;26329;40.388;-3.710;2023-11-21T04:57:26;9.80;76.20
40630;DHT22;26329;40.388;-3.710;2023-11-21T05:07:28;9.80;76.20
40630;DHT22;26329;40.388;-3.710;2023-11-21T05:17:29;9.80;76.10
40630;DHT22;26329;40.388;-3.710;2023-11-21T05:27:30;9.80;76.20
40630;DHT22;26329;40.388;-3.710;2023-11-21T05:37:33;9.90;76.40
40630;DHT22;26329;40.388;-3.710;2023-11-21T05:47:34;9.90;76.80
40630;DHT22;26329;40.388;-3.710;2023-11-21T05:57:39;10.00;76.20
40630;DHT22;26329;40.388;-3.710;2023-11-21T06:07:40;9.80;76.40
40630;DHT22;26329;40.388;-3.710;2023-11-21T06:17:41;9.70;75.70
40630;DHT22;26329;40.388;-3.710;2023-11-21T06:27:43;9.40;76.10
40630;DHT22;26329;40.388;-3.710;2023-11-21T06:37:44;9.40;75.90
40630;DHT22;26329;40.388;-3.710;2023-11-21T06:47:48;9.50;75.70
40630;DHT22;26329;40.388;-3.710;2023-11-21T06:57:49;9.30;76.40
40630;DHT22;26329;40.388;-3.710;2023-11-21T07:07:49;9.30;76.30
40630;DHT22;26329;40.388;-3.710;2023-11-21T07:17:50;9.40;75.80
40630;DHT22;26329;40.388;-3.710;2023-11-21T07:27:51;9.50;75.20
40630;DHT22;26329;40.388;-3.710;2023-11-21T07:37:52;9.50;74.80
40630;DHT22;26329;40.388;-3.710;2023-11-21T07:47:53;9.50;74.00
40630;DHT22;26329;40.388;-3.710;2023-11-21T07:57:54;9.40;73.80
40630;DHT22;26329;40.388;-3.710;2023-11-21T08:07:54;9.50;73.50
40630;DHT22;26329;40.388;-3.710;2023-11-21T08:17:55;9.50;73.10
40630;DHT22;26329;40.388;-3.710;2023-11-21T08:27:56;10.00;71.60
40630;DHT22;26329;40.388;-3.710;2023-11-21T08:37:56;10.20;71.10
40630;DHT22;26329;40.388;-3.710;2023-11-21T08:47:57;10.40;68.40
40630;DHT22;26329;40.388;-3.710;2023-11-21T08:57:58;10.90;67.60
40630;DHT22;26329;40.388;-3.710;2023-11-21T09:07:59;11.10;66.10
40630;DHT22;26329;40.388;-3.710;2023-11-21T09:17:59;11.40;64.30
40630;DHT22;26329;40.388;-3.710;2023-11-21T09:28:02;11.70;62.60
40630;DHT22;26329;40.388;-3.710;2023-11-21T09:38:02;11.90;60.90
40630;DHT22;26329;40.388;-3.710;2023-11-21T09:48:06;12.30;60.40
40630;DHT22;26329;40.388;-3.710;2023-11-21T09:58:07;12.40;59.10
40630;DHT22;26329;40.388;-3.710;2023-11-21T10:08:11;12.70;57.10
40630;DHT22;26329;40.388;-3.710;2023-11-21T10:18:12;12.80;56.70
40630;DHT22;26329;40.388;-3.710;2023-11-21T10:28:15;14.60;69.80
40630;DHT22;26329;40.388;-3.710;2023-11-21T10:38:16;15.60;55.50
40630;DHT22;26329;40.388;-3.710;2023-11-21T10:48:17;16.10;53.90
40630;DHT22;26329;40.388;-3.710;2023-11-21T10:58:17;16.10;51.30
40630;DHT22;26329;40.388;-3.710;2023-11-21T11:08:18;16.20;50.90
40630;DHT22;26329;40.388;-3.710;2023-11-21T11:18:19;16.10;50.40
40630;DHT22;26329;40.388;-3.710;2023-11-21T11:28:22;16.30;50.30
40630;DHT22;26329;40.388;-3.710;2023-11-21T11:38:27;16.30;49.80
40630;DHT22;26329;40.388;-3.710;2023-11-21T11:48:34;16.20;48.20
40630;DHT22;26329;40.388;-3.710;2023-11-21T11:58:37;15.90;48.80
40630;DHT22;26329;40.388;-3.710;2023-11-21T12:08:38;15.70;47.60
40630;DHT22;26329;40.388;-3.710;2023-11-21T12:18:39;15.30;44.40
40630;DHT22;26329;40.388;-3.710;2023-11-21T12:28:39;14.90;44.60
40630;DHT22;26329;40.388;-3.710;2023-11-21T12:38:40;14.70;46.90
40630;DHT22;26329;40.388;-3.710;2023-11-21T12:48:41;15.30;45.90
40630;DHT22;26329;40.388;-3.710;2023-11-21T12:58:44;14.90;43.50
40630;DHT22;26329;40.388;-3.710;2023-11-21T13:08:48;14.80;43.50
40630;DHT22;26329;40.388;-3.710;2023-11-21T13:18:49;14.80;43.40
40630;DHT22;26329;40.388;-3.710;2023-11-21T13:28:50;14.70;44.10
40630;DHT22;26329;40.388;-3.710;2023-11-21T13:38:51;14.70;43.70
40630;DHT22;26329;40.388;-3.710;2023-11-21T13:48:53;14.80;43.70
40630;DHT22;26329;40.388;-3.710;2023-11-21T13:58:56;14.60;43.80
40630;DHT22;26329;40.388;-3.710;2023-11-21T14:08:59;14.40;44.50
40630;DHT22;26329;40.388;-3.710;2023-11-21T14:19:05;14.60;44.30
40630;DHT22;26329;40.388;-3.710;2023-11-21T14:29:16;14.50;44.60
40630;DHT22;26329;40.388;-3.710;2023-11-21T14:39:20;14.50;44.70
40630;DHT22;26329;40.388;-3.710;2023-11-21T14:49:23;14.30;44.60
40630;DHT22;26329;40.388;-3.710;2023-11-21T14:59:27;14.20;44.90
40630;DHT22;26329;40.388;-3.710;2023-11-21T15:09:28;14.10;45.10
40630;DHT22;26329;40.388;-3.710;2023-11-21T15:19:39;14.20;45.00
40630;DHT22;26329;40.388;-3.710;2023-11-21T15:29:39;14.10;44.40
40630;DHT22;26329;40.388;-3.710;2023-11-21T15:39:40;13.90;45.30
40630;DHT22;26329;40.388;-3.710;2023-11-21T15:49:42;13.80;46.50
40630;DHT22;26329;40.388;-3.710;2023-11-21T15:59:42;13.60;47.00
40630;DHT22;26329;40.388;-3.710;2023-11-21T16:09:43;13.80;46.10
40630;DHT22;26329;40.388;-3.710;2023-11-21T16:19:44;13.50;46.20
40630;DHT22;26329;40.388;-3.710;2023-11-21T16:29:44;13.30;47.80
40630;DHT22;26329;40.388;-3.710;2023-11-21T16:39:46;13.10;49.90
40630;DHT22;26329;40.388;-3.710;2023-11-21T16:49:48;13.10;52.10
40630;DHT22;26329;40.388;-3.710;2023-11-21T16:59:49;13.10;46.30
40630;DHT22;26329;40.388;-3.710;2023-11-21T17:09:51;12.90;47.30
40630;DHT22;26329;40.388;-3.710;2023-11-21T17:19:51;12.80;48.30
40630;DHT22;26329;40.388;-3.710;2023-11-21T17:29:52;12.70;49.40
40630;DHT22;26329;40.388;-3.710;2023-11-21T17:39:53;12.60;49.90
40630;DHT22;26329;40.388;-3.710;2023-11-21T17:49:54;12.60;50.00
40630;DHT22;26329;40.388;-3.710;2023-11-21T17:59:55;12.40;51.10
40630;DHT22;26329;40.388;-3.710;2023-11-21T18:09:56;12.40;51.20
40630;DHT22;26329;40.388;-3.710;2023-11-21T18:19:56;12.10;52.40
40630;DHT22;26329;40.388;-3.710;2023-11-21T18:29:57;12.00;53.40
40630;DHT22;26329;40.388;-3.710;2023-11-21T18:40:01;11.80;53.90
40630;DHT22;26329;40.388;-3.710;2023-11-21T18:50:01;11.80;53.40
40630;DHT22;26329;40.388;-3.710;2023-11-21T19:00:06;12.30;53.40
40630;DHT22;26329;40.388;-3.710;2023-11-21T19:10:11;12.00;51.80
40630;DHT22;26329;40.388;-3.710;2023-11-21T19:20:12;12.20;48.40
40630;DHT22;26329;40.388;-3.710;2023-11-21T19:30:12;12.00;49.30
40630;DHT22;26329;40.388;-3.710;2023-11-21T19:40:13;12.00;50.40
40630;DHT22;26329;40.388;-3.710;2023-11-21T19:50:14;12.00;50.90
40630;DHT22;26329;40.388;-3.710;2023-11-21T20:00:15;11.80;51.40
40630;DHT22;26329;40.388;-3.710;2023-11-21T20:10:15;11.80;51.60
40630;DHT22;26329;40.388;-3.710;2023-11-21T20:20:18;11.70;51.40
40630;DHT22;26329;40.388;-3.710;2023-11-21T20:30:19;11.60;51.60
40630;DHT22;26329;40.388;-3.710;2023-11-21T20:40:20;11.60;51.00
40630;DHT22;26329;40.388;-3.710;2023-11-21T20:50:21;11.50;51.40
40630;DHT22;26329;40.388;-3.710;2023-11-21T21:00:23;11.70;52.00
40630;DHT22;26329;40.388;-3.710;2023-11-21T21:10:27;11.70;52.30
40630;DHT22;26329;40.388;-3.710;2023-11-21T21:20:28;11.60;53.10
40630;DHT22;26329;40.388;-3.710;2023-11-21T21:30:30;11.20;53.80
40630;DHT22;26329;40.388;-3.710;2023-11-21T21:40:31;11.30;53.30
40630;DHT22;26329;40.388;-3.710;2023-11-21T21:50:33;11.00;54.10
40630;DHT22;26329;40.388;-3.710;2023-11-21T22:00:34;11.10;53.70
40630;DHT22;26329;40.388;-3.710;2023-11-21T22:10:35;11.00;53.80
40630;DHT22;26329;40.388;-3.710;2023-11-21T22:20:36;10.90;54.20
40630;DHT22;26329;40.388;-3.710;2023-11-21T22:30:36;10.80;54.20
40630;DHT22;26329;40.388;-3.710;2023-11-21T22:40:37;10.90;53.80
40630;DHT22;26329;40.388;-3.710;2023-11-21T22:50:38;10.90;53.90
40630;DHT22;26329;40.388;-3.710;2023-11-21T23:00:38;10.70;54.40
40630;DHT22;26329;40.388;-3.710;2023-11-21T23:10:39;10.70;54.40
40630;DHT22;26329;40.388;-3.710;2023-11-21T23:20:40;10.80;53.30
40630;DHT22;26329;40.388;-3.710;2023-11-21T23:30:41;10.80;52.60
40630;DHT22;26329;40.388;-3.710;2023-11-21T23:40:41;10.80;52.50
40630;DHT22;26329;40.388;-3.710;2023-11-21T23:50:43;10.70;52.90
